Time;durP1;ratioP1;P1;durP2;ratioP2;P2;SDS_P1;SDS_P2;PMS_P1;PMS_P2;Temp;Humidity;BMP_temperature;BMP_pressure;BME280_temperature;BME280_humidity;BME280_pressure;Samples;Min_cycle;Max_cycle;Signal;HPM_P1;HPM_P2
2023/08/14 00:01:13;;;;;;;2.95;1.77;;;22.30;65.90;;;;;;4898632;29;20043;-76
2023/08/14 00:03:39;;;;;;;2.65;1.60;;;22.30;65.90;;;;;;4897286;29;20037;-77
2023/08/14 00:06:05;;;;;;;3.40;2.22;;;22.20;66.50;;;;;;4898904;29;20037;-77
2023/08/14 00:08:30;;;;;;;1.75;1.63;;;22.20;65.90;;;;;;4912870;29;20088;-77
2023/08/14 00:10:56;;;;;;;2.25;1.58;;;22.20;65.90;;;;;;4897365;29;20032;-76
2023/08/14 00:13:22;;;;;;;2.25;1.63;;;22.20;66.00;;;;;;4898767;29;20127;-77
2023/08/14 00:15:48;;;;;;;2.40;1.60;;;22.20;66.00;;;;;;4898285;29;20080;-76
2023/08/14 00:18:14;;;;;;;2.17;1.67;;;22.10;66.00;;;;;;4881941;29;20119;-77
2023/08/14 00:20:40;;;;;;;2.13;1.63;;;22.10;66.10;;;;;;4898209;29;20032;-77
2023/08/14 00:23:06;;;;;;;1.70;1.60;;;22.10;66.10;;;;;;4913402;29;20486;-77
2023/08/14 00:25:32;;;;;;;2.75;2.05;;;22.10;66.10;;;;;;4897853;29;20040;-77
2023/08/14 00:27:57;;;;;;;2.83;1.75;;;22.00;66.10;;;;;;4881366;29;20033;-77
2023/08/14 00:30:23;;;;;;;2.20;1.77;;;22.00;66.10;;;;;;4897246;29;20033;-78
2023/08/14 00:32:49;;;;;;;2.40;1.83;;;22.00;66.20;;;;;;4912821;29;20037;-78
2023/08/14 00:35:15;;;;;;;3.03;1.80;;;22.00;66.20;;;;;;4912837;29;20037;-77
2023/08/14 00:37:43;;;;;;;3.30;1.58;;;21.90;66.20;;;;;;4897006;29;20053;-78
2023/08/14 00:40:10;;;;;;;2.70;1.88;;;21.90;66.20;;;;;;4899522;29;20032;-76
2023/08/14 00:42:38;;;;;;;2.35;1.60;;;21.90;66.30;;;;;;4913481;29;20412;-76
2023/08/14 00:45:05;;;;;;;1.80;1.55;;;21.90;66.40;;;;;;4897342;29;20037;-77
2023/08/14 00:47:32;;;;;;;2.95;2.03;;;21.90;66.40;;;;;;4897142;29;20107;-77
2023/08/14 00:49:58;;;;;;;2.00;1.75;;;21.80;66.40;;;;;;4899914;29;20466;-77
2023/08/14 00:52:26;;;;;;;2.63;1.70;;;21.80;66.40;;;;;;4901176;29;20048;-76
2023/08/14 00:54:52;;;;;;;2.15;1.70;;;21.80;66.60;;;;;;4901003;29;20047;-78
2023/08/14 00:57:18;;;;;;;2.67;1.85;;;21.80;66.60;;;;;;4916212;29;20043;-76
2023/08/14 00:59:43;;;;;;;3.33;1.90;;;21.70;66.50;;;;;;4900473;29;20041;-76
2023/08/14 01:02:09;;;;;;;2.28;1.67;;;21.70;66.60;;;;;;4901003;29;20029;-77
2023/08/14 01:04:35;;;;;;;2.83;1.60;;;21.70;66.60;;;;;;4900857;29;20033;-76
2023/08/14 01:07:01;;;;;;;2.10;1.63;;;21.70;66.70;;;;;;4901367;29;20036;-76
2023/08/14 01:09:26;;;;;;;2.45;1.83;;;21.60;66.70;;;;;;4901442;29;20132;-77
2023/08/14 01:11:53;;;;;;;3.30;1.58;;;21.60;66.70;;;;;;4900626;29;20033;-76
2023/08/14 01:14:26;;;;;;;2.22;1.80;;;21.60;66.70;;;;;;4900298;29;20040;-77
2023/08/14 01:16:58;;;;;;;2.25;1.60;;;21.60;66.80;;;;;;4916363;29;20155;-76
2023/08/14 01:19:34;;;;;;;1.52;1.42;;;21.50;66.80;;;;;;4900630;29;20029;-76
2023/08/14 01:22:04;;;;;;;1.65;1.42;;;21.50;66.80;;;;;;4900276;29;20036;-78
2023/08/14 01:24:39;;;;;;;1.85;1.65;;;21.50;66.80;;;;;;4901307;29;20181;-76
2023/08/14 01:27:05;;;;;;;1.95;1.60;;;21.50;66.90;;;;;;4901503;29;20477;-77
2023/08/14 01:29:31;;;;;;;2.00;1.58;;;21.50;66.90;;;;;;4900062;29;20040;-76
2023/08/14 01:31:57;;;;;;;2.22;1.80;;;21.40;66.90;;;;;;4899908;29;20064;-76
2023/08/14 01:34:24;;;;;;;3.17;1.88;;;21.40;66.90;;;;;;4900226;29;20032;-76
2023/08/14 01:37:07;;;;;;;2.75;1.83;;;21.40;67.00;;;;;;4915617;29;20063;-77
2023/08/14 01:39:43;;;;;;;2.15;1.67;;;21.40;67.10;;;;;;4901426;29;20115;-77
2023/08/14 01:42:18;;;;;;;2.95;2.20;;;21.30;67.00;;;;;;4916408;29;20083;-76
2023/08/14 01:44:47;;;;;;;2.30;1.70;;;21.30;66.90;;;;;;4900433;29;20160;-77
2023/08/14 01:47:16;;;;;;;2.53;1.95;;;21.30;67.00;;;;;;4884501;29;20039;-76
2023/08/14 01:49:42;;;;;;;2.53;1.70;;;21.30;67.00;;;;;;4900037;29;20044;-76
2023/08/14 01:52:09;;;;;;;2.10;1.70;;;21.20;67.00;;;;;;4900524;29;20056;-76
2023/08/14 01:54:35;;;;;;;2.40;1.98;;;21.20;67.00;;;;;;4899966;29;20381;-76
2023/08/14 01:57:01;;;;;;;5.22;2.30;;;21.20;67.00;;;;;;4899910;29;20443;-76
2023/08/14 01:59:40;;;;;;;3.22;2.10;;;21.20;67.00;;;;;;4899701;29;20449;-76
2023/08/14 02:02:06;;;;;;;2.72;1.83;;;21.20;67.10;;;;;;4899019;29;20470;-76
2023/08/14 02:04:32;;;;;;;2.58;1.75;;;21.10;67.00;;;;;;4899855;29;20077;-76
2023/08/14 02:06:58;;;;;;;2.03;1.52;;;21.10;67.10;;;;;;4915448;29;20037;-78
2023/08/14 02:09:23;;;;;;;2.80;1.80;;;21.10;67.10;;;;;;4915644;29;20084;-78
2023/08/14 02:11:49;;;;;;;2.60;1.80;;;21.10;67.20;;;;;;4883880;29;20538;-77
2023/08/14 02:14:15;;;;;;;3.17;2.10;;;21.00;67.20;;;;;;4899697;29;20028;-76
2023/08/14 02:16:41;;;;;;;2.60;1.85;;;21.00;67.20;;;;;;4899478;29;20037;-77
2023/08/14 02:19:07;;;;;;;2.85;2.05;;;21.00;67.30;;;;;;4899340;29;20044;-76
2023/08/14 02:21:32;;;;;;;2.63;1.90;;;21.00;67.30;;;;;;4883539;29;20104;-77
2023/08/14 02:23:58;;;;;;;1.98;1.73;;;20.90;67.20;;;;;;4899968;29;20458;-76
2023/08/14 02:26:24;;;;;;;2.95;2.10;;;20.90;67.30;;;;;;4884183;29;20033;-76
2023/08/14 02:28:49;;;;;;;3.08;2.15;;;20.90;67.30;;;;;;4899137;29;20069;-74
2023/08/14 02:31:16;;;;;;;1.90;1.70;;;20.90;67.30;;;;;;4900466;29;20051;-78
2023/08/14 02:33:42;;;;;;;2.13;1.92;;;20.90;67.30;;;;;;4899168;29;20135;-77
2023/08/14 02:36:07;;;;;;;2.35;1.85;;;20.80;67.30;;;;;;4915153;29;20489;-77
2023/08/14 02:38:34;;;;;;;2.42;1.75;;;20.80;67.30;;;;;;4899347;29;20569;-76
2023/08/14 02:41:02;;;;;;;2.67;1.90;;;20.70;67.30;;;;;;4884143;29;20474;-76
2023/08/14 02:43:29;;;;;;;2.70;2.10;;;20.80;67.50;;;;;;4914945;29;20464;-75
2023/08/14 02:45:54;;;;;;;2.75;1.83;;;20.80;67.40;;;;;;4899227;29;20055;-76
2023/08/14 02:48:22;;;;;;;2.88;1.95;;;20.70;67.40;;;;;;4898514;29;20484;-77
2023/08/14 02:50:47;;;;;;;2.95;2.10;;;20.70;67.40;;;;;;4898706;29;20044;-77
2023/08/14 02:53:13;;;;;;;2.72;2.13;;;20.70;67.50;;;;;;4899016;29;20040;-75
2023/08/14 02:55:39;;;;;;;3.65;2.10;;;20.70;67.50;;;;;;4915116;29;20036;-76
2023/08/14 02:58:04;;;;;;;3.30;2.30;;;20.60;67.50;;;;;;4883079;29;20032;-76
2023/08/14 03:00:30;;;;;;;2.45;1.95;;;20.60;67.60;;;;;;4898710;29;20542;-75
2023/08/14 03:02:56;;;;;;;2.85;2.00;;;20.60;67.60;;;;;;4883152;29;20494;-74
2023/08/14 03:05:22;;;;;;;2.50;2.10;;;20.60;67.60;;;;;;4898765;29;20042;-76
2023/08/14 03:07:47;;;;;;;2.40;2.05;;;20.60;67.60;;;;;;4898950;29;20363;-75
2023/08/14 03:10:13;;;;;;;2.40;2.00;;;20.60;67.70;;;;;;4899218;29;20474;-75
2023/08/14 03:12:39;;;;;;;2.88;2.15;;;20.50;67.60;;;;;;4914225;29;20128;-75
2023/08/14 03:15:06;;;;;;;2.83;2.20;;;20.50;67.70;;;;;;4899743;29;20024;-76
2023/08/14 03:17:33;;;;;;;3.05;2.05;;;20.50;67.70;;;;;;4898709;29;20386;-76
2023/08/14 03:19:58;;;;;;;3.47;2.28;;;20.50;67.70;;;;;;4898668;29;20437;-75
2023/08/14 03:22:24;;;;;;;3.22;2.33;;;20.50;67.70;;;;;;4898432;29;20033;-75
2023/08/14 03:24:50;;;;;;;2.72;1.90;;;20.40;67.70;;;;;;4883152;29;20145;-76
2023/08/14 03:27:16;;;;;;;3.10;2.42;;;20.40;67.70;;;;;;4898238;29;20036;-75
2023/08/14 03:29:42;;;;;;;3.65;2.50;;;20.40;67.70;;;;;;4898524;29;20100;-75
2023/08/14 03:32:08;;;;;;;3.63;2.50;;;20.40;67.70;;;;;;4898923;29;20040;-75
2023/08/14 03:34:33;;;;;;;3.50;2.33;;;20.40;67.80;;;;;;4898318;29;20386;-75
2023/08/14 03:36:59;;;;;;;3.47;2.50;;;20.40;67.80;;;;;;4897742;29;20057;-75
2023/08/14 03:39:25;;;;;;;3.05;2.03;;;20.30;67.80;;;;;;4885167;29;20036;-74
2023/08/14 03:41:51;;;;;;;4.32;2.13;;;20.30;67.90;;;;;;4900153;29;20043;-76
2023/08/14 03:44:16;;;;;;;2.45;2.08;;;20.30;67.90;;;;;;4898816;29;20036;-76
2023/08/14 03:46:42;;;;;;;2.65;2.05;;;20.30;67.90;;;;;;4898599;29;20056;-74
2023/08/14 03:49:08;;;;;;;2.80;2.10;;;20.30;68.00;;;;;;4898321;29;20076;-77
2023/08/14 03:51:35;;;;;;;2.65;2.10;;;20.30;68.00;;;;;;4897905;29;20037;-75
2023/08/14 03:54:01;;;;;;;2.50;2.00;;;20.20;67.90;;;;;;4897736;29;20041;-76
2023/08/14 03:56:27;;;;;;;3.38;1.92;;;20.20;68.00;;;;;;4899354;29;20028;-76
2023/08/14 03:58:53;;;;;;;2.67;2.10;;;20.20;68.00;;;;;;4897301;29;20047;-77
2023/08/14 04:01:19;;;;;;;2.90;2.28;;;20.20;68.00;;;;;;4882033;29;20521;-75
2023/08/14 04:03:45;;;;;;;3.20;2.10;;;20.20;68.10;;;;;;4898150;29;20029;-75
2023/08/14 04:06:11;;;;;;;2.90;1.88;;;20.20;68.00;;;;;;4898048;29;20041;-77
2023/08/14 04:08:36;;;;;;;2.40;2.00;;;20.10;68.00;;;;;;4898480;29;20040;-78
2023/08/14 04:11:04;;;;;;;2.17;1.98;;;20.10;68.10;;;;;;4913324;29;20040;-75
2023/08/14 04:13:30;;;;;;;2.33;1.98;;;20.10;68.10;;;;;;4913190;29;20089;-75
2023/08/14 04:15:59;;;;;;;2.50;1.98;;;20.10;68.10;;;;;;4897935;29;20124;-76
2023/08/14 04:18:27;;;;;;;2.50;2.00;;;20.10;68.10;;;;;;4912865;29;20050;-76
2023/08/14 04:20:53;;;;;;;2.95;2.10;;;20.10;68.20;;;;;;4897146;29;20039;-77
2023/08/14 04:23:18;;;;;;;3.55;2.25;;;20.10;68.20;;;;;;4896819;29;20040;-75
2023/08/14 04:25:44;;;;;;;2.75;2.03;;;20.00;68.20;;;;;;4897230;29;20378;-79
2023/08/14 04:28:11;;;;;;;3.88;2.17;;;20.00;68.20;;;;;;4881959;29;20028;-75
2023/08/14 04:30:37;;;;;;;2.70;2.20;;;20.00;68.20;;;;;;4913112;29;20096;-76
2023/08/14 04:33:03;;;;;;;3.47;1.98;;;20.00;68.20;;;;;;4897115;29;20037;-76
2023/08/14 04:35:28;;;;;;;2.47;1.88;;;20.00;68.20;;;;;;4896985;29;20056;-77
2023/08/14 04:37:55;;;;;;;2.75;2.15;;;20.00;68.20;;;;;;4896810;29;20052;-74
2023/08/14 04:40:21;;;;;;;2.20;1.70;;;19.90;68.20;;;;;;4897437;29;20446;-75
2023/08/14 04:42:47;;;;;;;2.45;2.00;;;19.90;68.20;;;;;;4897174;29;20441;-74
2023/08/14 04:45:13;;;;;;;2.40;2.00;;;19.90;68.20;;;;;;4913050;29;20040;-73
2023/08/14 04:47:38;;;;;;;2.47;2.10;;;19.90;68.20;;;;;;4897146;29;20420;-74
2023/08/14 04:50:05;;;;;;;2.80;2.00;;;19.90;68.30;;;;;;4897753;29;20382;-74
2023/08/14 04:52:31;;;;;;;2.42;2.08;;;19.80;68.20;;;;;;4897065;29;20128;-74
2023/08/14 04:54:56;;;;;;;2.35;1.77;;;19.80;68.20;;;;;;4866888;29;20497;-74
2023/08/14 04:57:25;;;;;;;2.50;2.13;;;19.80;68.30;;;;;;4882183;29;20037;-74
2023/08/14 04:59:51;;;;;;;2.45;1.90;;;19.80;68.40;;;;;;4881550;29;20450;-75
2023/08/14 05:02:16;;;;;;;2.58;1.98;;;19.80;68.40;;;;;;4896850;29;20491;-75
2023/08/14 05:04:42;;;;;;;2.25;1.90;;;19.80;68.40;;;;;;4912516;29;20036;-76
2023/08/14 05:07:08;;;;;;;2.60;2.08;;;19.80;68.40;;;;;;4913077;29;20032;-75
2023/08/14 05:09:34;;;;;;;2.03;1.80;;;19.70;68.50;;;;;;4897293;29;20397;-76
2023/08/14 05:12:00;;;;;;;3.00;2.20;;;19.70;68.50;;;;;;4896592;29;20041;-76
2023/08/14 05:14:27;;;;;;;2.70;2.08;;;19.70;68.50;;;;;;4896482;29;20088;-75
2023/08/14 05:16:52;;;;;;;2.38;1.77;;;19.70;68.50;;;;;;4896903;29;20040;-75
2023/08/14 05:19:20;;;;;;;3.00;2.28;;;19.80;68.60;;;;;;4897815;29;20084;-75
2023/08/14 05:21:45;;;;;;;2.30;2.10;;;19.80;68.60;;;;;;4896566;29;20055;-76
2023/08/14 05:24:14;;;;;;;3.20;2.30;;;19.80;68.60;;;;;;4896471;29;20068;-79
2023/08/14 05:26:40;;;;;;;2.55;2.00;;;19.70;68.60;;;;;;4896774;29;20085;-75
2023/08/14 05:29:05;;;;;;;2.72;2.10;;;19.70;68.60;;;;;;4912953;29;20040;-75
2023/08/14 05:31:31;;;;;;;2.70;2.00;;;19.70;68.60;;;;;;4897767;29;20044;-76
2023/08/14 05:33:57;;;;;;;3.10;2.20;;;19.70;68.70;;;;;;4896773;29;20447;-75
2023/08/14 05:36:22;;;;;;;3.17;2.45;;;19.70;68.70;;;;;;4899660;29;20056;-76
2023/08/14 05:38:48;;;;;;;2.33;2.05;;;19.70;68.70;;;;;;4915746;29;20043;-76
2023/08/14 05:41:15;;;;;;;2.30;2.00;;;19.80;68.80;;;;;;4901035;29;20055;-75
2023/08/14 05:43:41;;;;;;;2.40;2.00;;;19.70;68.70;;;;;;4884636;29;20040;-77
2023/08/14 05:46:06;;;;;;;2.35;2.10;;;19.70;68.80;;;;;;4915612;29;20056;-75
2023/08/14 05:48:32;;;;;;;2.15;1.95;;;19.70;68.80;;;;;;4899609;29;20053;-74
2023/08/14 05:50:58;;;;;;;2.80;2.10;;;19.70;68.80;;;;;;4900084;29;20029;-75
2023/08/14 05:53:24;;;;;;;3.00;2.22;;;19.70;68.80;;;;;;4901169;29;20028;-76
2023/08/14 05:55:49;;;;;;;2.75;2.05;;;19.80;68.90;;;;;;4869101;29;20379;-75
2023/08/14 05:58:15;;;;;;;2.28;1.95;;;19.70;68.80;;;;;;4884271;29;20039;-75
2023/08/14 06:00:41;;;;;;;2.05;1.85;;;19.80;68.90;;;;;;4900135;29;20114;-75
2023/08/14 06:03:08;;;;;;;2.38;2.00;;;19.80;69.00;;;;;;4915860;29;20482;-76
2023/08/14 06:05:35;;;;;;;2.33;2.10;;;19.80;68.90;;;;;;4901085;29;20056;-76
2023/08/14 06:08:01;;;;;;;2.42;2.10;;;19.80;68.90;;;;;;4900040;29;20028;-75
2023/08/14 06:10:27;;;;;;;2.20;2.00;;;19.80;68.90;;;;;;4899672;29;20025;-77
2023/08/14 06:12:53;;;;;;;3.50;2.40;;;19.80;68.90;;;;;;4884910;29;20037;-75
2023/08/14 06:15:19;;;;;;;3.28;2.17;;;19.80;69.00;;;;;;4901040;29;20043;-75
2023/08/14 06:17:47;;;;;;;2.78;2.03;;;19.80;69.00;;;;;;4900545;29;20068;-75
2023/08/14 06:20:13;;;;;;;2.50;2.03;;;19.90;69.10;;;;;;4900496;29;20068;-75
2023/08/14 06:22:46;;;;;;;2.13;1.92;;;19.90;69.00;;;;;;4899808;29;20073;-75
2023/08/14 06:25:13;;;;;;;2.30;1.98;;;19.90;69.00;;;;;;4900135;29;20483;-75
2023/08/14 06:27:40;;;;;;;2.65;1.90;;;19.90;69.00;;;;;;4899316;29;20032;-76
2023/08/14 06:30:10;;;;;;;2.08;1.88;;;19.90;69.00;;;;;;4884516;29;20119;-75
2023/08/14 06:32:37;;;;;;;2.28;2.08;;;19.90;69.10;;;;;;4900227;29;20120;-76
2023/08/14 06:35:03;;;;;;;2.30;2.10;;;20.00;69.10;;;;;;4915130;29;20029;-75
2023/08/14 06:37:29;;;;;;;2.05;1.83;;;20.00;69.10;;;;;;4899173;29;20064;-75
2023/08/14 06:39:55;;;;;;;2.25;2.00;;;20.00;69.10;;;;;;4902022;29;20045;-75
2023/08/14 06:42:21;;;;;;;2.50;2.03;;;20.00;69.10;;;;;;4899968;29;20064;-75
2023/08/14 06:44:47;;;;;;;3.25;2.35;;;20.00;69.10;;;;;;4900329;29;20032;-75
2023/08/14 06:47:13;;;;;;;2.70;2.20;;;20.00;69.10;;;;;;4914156;29;20043;-77
2023/08/14 06:49:38;;;;;;;3.03;1.85;;;20.00;69.10;;;;;;4900068;29;20047;-76
2023/08/14 06:52:04;;;;;;;2.28;1.80;;;20.00;69.10;;;;;;4914867;29;20040;-77
2023/08/14 06:54:30;;;;;;;2.50;2.03;;;20.00;69.10;;;;;;4914493;29;20036;-76
2023/08/14 06:56:56;;;;;;;2.78;2.00;;;20.10;69.10;;;;;;4899644;29;20493;-76
2023/08/14 06:59:22;;;;;;;1.98;1.75;;;20.10;69.10;;;;;;4900148;29;20036;-76
2023/08/14 07:01:47;;;;;;;4.47;2.70;;;20.10;69.10;;;;;;4914502;29;20390;-76
2023/08/14 07:04:14;;;;;;;2.75;2.17;;;20.10;69.10;;;;;;4900217;29;20037;-78
2023/08/14 07:06:39;;;;;;;2.30;2.00;;;20.10;69.10;;;;;;4898834;29;20068;-76
2023/08/14 07:09:05;;;;;;;2.45;2.10;;;20.20;69.10;;;;;;4898569;29;20084;-77
2023/08/14 07:11:36;;;;;;;2.58;1.98;;;20.20;69.10;;;;;;4898625;29;20040;-77
2023/08/14 07:14:03;;;;;;;2.28;2.08;;;20.20;69.10;;;;;;4883579;29;20482;-76
2023/08/14 07:16:29;;;;;;;3.17;2.20;;;20.20;69.10;;;;;;4899390;29;20435;-77
2023/08/14 07:18:55;;;;;;;3.78;2.28;;;20.20;69.10;;;;;;4899529;29;20502;-75
2023/08/14 07:21:20;;;;;;;3.28;2.58;;;20.20;69.10;;;;;;4914518;29;20031;-76
2023/08/14 07:23:46;;;;;;;2.95;2.03;;;20.30;69.20;;;;;;4898407;29;20044;-76
2023/08/14 07:26:12;;;;;;;4.05;2.60;;;20.30;69.20;;;;;;4899580;29;20446;-77
2023/08/14 07:28:39;;;;;;;3.05;2.30;;;20.30;69.20;;;;;;4899242;29;20120;-77
2023/08/14 07:31:05;;;;;;;3.28;2.40;;;20.30;69.20;;;;;;4898305;29;20470;-76
2023/08/14 07:33:34;;;;;;;4.82;2.70;;;20.40;69.20;;;;;;4882798;29;20079;-76
2023/08/14 07:36:00;;;;;;;2.55;1.92;;;20.40;69.20;;;;;;4898288;29;20036;-77
2023/08/14 07:38:26;;;;;;;3.45;2.60;;;20.40;69.20;;;;;;4898202;29;20033;-76
2023/08/14 07:40:53;;;;;;;4.18;2.60;;;20.50;69.20;;;;;;4882673;29;20051;-76
2023/08/14 07:43:19;;;;;;;2.80;2.28;;;20.50;69.20;;;;;;4882812;29;20422;-76
2023/08/14 07:45:45;;;;;;;2.92;2.38;;;20.50;69.20;;;;;;4898063;29;20193;-77
2023/08/14 07:48:11;;;;;;;3.33;2.58;;;20.60;69.20;;;;;;4883146;29;20060;-77
2023/08/14 07:50:36;;;;;;;3.40;2.33;;;20.50;69.80;;;;;;4913675;29;20036;-76
2023/08/14 07:53:03;;;;;;;3.35;2.40;;;20.60;69.20;;;;;;4897841;29;20032;-77
2023/08/14 07:55:28;;;;;;;2.95;2.35;;;20.60;69.10;;;;;;4913312;29;20032;-76
2023/08/14 07:57:54;;;;;;;2.92;2.38;;;20.70;69.10;;;;;;4913054;29;20045;-76
2023/08/14 08:00:20;;;;;;;3.05;2.35;;;20.70;69.10;;;;;;4897769;29;20132;-76
2023/08/14 08:02:46;;;;;;;3.40;2.30;;;20.70;69.00;;;;;;4897808;29;20064;-77
2023/08/14 08:05:12;;;;;;;2.80;2.28;;;20.80;69.00;;;;;;4897969;29;20502;-76
2023/08/14 08:07:38;;;;;;;3.70;2.25;;;20.80;69.00;;;;;;4897630;29;20040;-77
2023/08/14 08:10:04;;;;;;;2.85;2.33;;;20.90;69.00;;;;;;4897762;29;20225;-77
2023/08/14 08:12:30;;;;;;;3.88;2.90;;;20.90;68.90;;;;;;4913354;29;20032;-76
2023/08/14 08:14:56;;;;;;;3.25;2.22;;;20.90;68.90;;;;;;4897945;29;20435;-77
2023/08/14 08:17:22;;;;;;;3.47;2.42;;;21.00;68.90;;;;;;4897604;29;20036;-76
2023/08/14 08:19:48;;;;;;;2.67;2.00;;;21.00;68.80;;;;;;4897436;29;20044;-76
2023/08/14 08:22:14;;;;;;;3.35;2.47;;;21.00;68.80;;;;;;4897183;29;20025;-75
2023/08/14 08:24:40;;;;;;;2.95;2.20;;;21.10;68.80;;;;;;4897134;29;20079;-77
2023/08/14 08:27:05;;;;;;;3.13;2.00;;;21.10;68.70;;;;;;4898503;29;20040;-76
2023/08/14 08:29:31;;;;;;;3.92;2.53;;;21.20;68.60;;;;;;4912838;29;20511;-76
2023/08/14 08:31:57;;;;;;;3.38;2.38;;;21.30;68.60;;;;;;4897692;29;20406;-76
2023/08/14 08:34:23;;;;;;;4.47;2.40;;;21.30;69.10;;;;;;4881870;29;20047;-76
2023/08/14 08:36:48;;;;;;;3.22;2.30;;;21.40;68.40;;;;;;4881720;29;20076;-77
2023/08/14 08:39:14;;;;;;;3.45;2.30;;;21.50;68.40;;;;;;4898382;29;20056;-76
2023/08/14 08:41:44;;;;;;;3.85;2.40;;;21.50;68.20;;;;;;4897834;29;20047;-76
2023/08/14 08:44:25;;;;;;;2.80;2.08;;;21.60;68.20;;;;;;4897985;29;20101;-76
2023/08/14 08:46:53;;;;;;;4.32;2.45;;;21.70;68.10;;;;;;4897167;29;20028;-76
2023/08/14 08:49:19;;;;;;;3.20;1.98;;;21.80;67.90;;;;;;4898196;29;20074;-76
2023/08/14 08:51:45;;;;;;;2.53;1.80;;;21.80;67.80;;;;;;4897211;29;20475;-77
2023/08/14 08:54:15;;;;;;;3.47;2.10;;;21.90;67.70;;;;;;4897436;29;20112;-76
2023/08/14 08:56:42;;;;;;;3.00;2.13;;;22.00;67.70;;;;;;4898028;29;20033;-76
2023/08/14 08:59:11;;;;;;;3.40;2.10;;;22.10;67.50;;;;;;4897408;29;20474;-76
2023/08/14 09:01:46;;;;;;;4.07;2.17;;;22.20;67.50;;;;;;4896762;29;20029;-76
2023/08/14 09:04:12;;;;;;;3.10;1.98;;;22.30;67.40;;;;;;4897532;29;20044;-76
2023/08/14 09:06:38;;;;;;;3.00;2.10;;;22.40;67.30;;;;;;4913270;29;20364;-76
2023/08/14 09:09:04;;;;;;;3.00;2.25;;;22.50;67.20;;;;;;4881781;29;20052;-77
2023/08/14 09:11:30;;;;;;;3.38;2.20;;;22.50;67.00;;;;;;4902050;29;20124;-76
2023/08/14 09:13:56;;;;;;;3.08;2.10;;;22.60;67.00;;;;;;4885370;29;20036;-77
2023/08/14 09:16:23;;;;;;;3.88;1.83;;;22.70;66.90;;;;;;4902009;29;20465;-77
2023/08/14 09:18:48;;;;;;;2.38;1.80;;;22.80;66.80;;;;;;4900969;29;20123;-76
2023/08/14 09:21:15;;;;;;;2.83;1.85;;;22.90;66.70;;;;;;4884845;29;20111;-77
2023/08/14 09:23:42;;;;;;;3.40;2.08;;;23.00;66.70;;;;;;4901499;29;20033;-77
2023/08/14 09:26:08;;;;;;;2.78;2.10;;;23.10;66.60;;;;;;4901113;29;20482;-76
2023/08/14 09:28:35;;;;;;;3.50;2.00;;;23.20;66.60;;;;;;4900296;29;20048;-77
2023/08/14 09:31:12;;;;;;;3.78;2.00;;;23.30;66.60;;;;;;4900260;29;20041;-76
2023/08/14 09:33:43;;;;;;;2.60;1.75;;;23.40;66.60;;;;;;4884909;29;20040;-76
2023/08/14 09:36:12;;;;;;;2.22;1.77;;;23.40;66.50;;;;;;4901048;29;20108;-77
2023/08/14 09:38:38;;;;;;;3.47;1.80;;;23.60;66.50;;;;;;4901241;29;20524;-76
2023/08/14 09:41:04;;;;;;;3.00;1.77;;;23.70;66.40;;;;;;4884831;29;20060;-77
2023/08/14 09:43:31;;;;;;;2.00;1.50;;;23.80;66.30;;;;;;4884685;29;20402;-77
2023/08/14 09:45:59;;;;;;;2.85;1.80;;;23.80;66.30;;;;;;4900213;29;20039;-77
2023/08/14 09:48:44;;;;;;;2.22;1.55;;;24.00;66.30;;;;;;4901559;29;20032;-76
2023/08/14 09:51:16;;;;;;;2.47;1.80;;;24.00;66.20;;;;;;4900010;29;20088;-76
2023/08/14 09:53:54;;;;;;;2.80;1.77;;;24.20;66.10;;;;;;4900828;29;20044;-76
2023/08/14 09:56:20;;;;;;;2.15;1.35;;;24.20;66.10;;;;;;4901634;29;20044;-77
2023/08/14 09:58:47;;;;;;;2.58;1.50;;;24.30;66.00;;;;;;4915730;29;20037;-77
2023/08/14 10:01:18;;;;;;;1.95;1.40;;;24.40;66.00;;;;;;4885162;29;20037;-75
2023/08/14 10:03:49;;;;;;;2.95;1.60;;;24.50;66.00;;;;;;4899914;29;20395;-75
2023/08/14 10:06:15;;;;;;;2.70;1.50;;;24.60;66.00;;;;;;4900146;29;20040;-75
2023/08/14 10:08:44;;;;;;;2.15;1.65;;;24.80;65.90;;;;;;4900652;29;20389;-75
2023/08/14 10:11:15;;;;;;;2.95;1.63;;;24.80;65.90;;;;;;4915376;29;20068;-85
2023/08/14 10:13:45;;;;;;;2.63;1.70;;;24.90;65.80;;;;;;4900185;29;20171;-77
2023/08/14 10:16:16;;;;;;;2.75;1.63;;;25.00;65.50;;;;;;4899748;29;20058;-77
2023/08/14 10:18:44;;;;;;;3.40;1.80;;;25.10;65.10;;;;;;4900867;29;20041;-77
2023/08/14 10:21:12;;;;;;;3.08;1.77;;;25.20;64.90;;;;;;4898983;29;20032;-78
2023/08/14 10:23:39;;;;;;;3.05;1.80;;;25.30;64.80;;;;;;4899889;29;20143;-77
2023/08/14 10:26:07;;;;;;;4.20;1.70;;;25.40;64.50;;;;;;4915352;29;20040;-78
2023/08/14 10:28:33;;;;;;;4.00;1.73;;;25.50;64.40;;;;;;4900348;29;20036;-78
2023/08/14 10:30:59;;;;;;;3.50;1.50;;;25.60;64.10;;;;;;4915489;29;20037;-77
2023/08/14 10:33:26;;;;;;;2.75;1.55;;;25.70;64.00;;;;;;4901078;29;20033;-77
2023/08/14 10:35:55;;;;;;;3.58;1.65;;;25.70;63.70;;;;;;4883747;29;20112;-79
2023/08/14 10:38:24;;;;;;;3.60;1.63;;;25.80;63.50;;;;;;4899434;29;20049;-77
2023/08/14 10:40:55;;;;;;;3.05;1.58;;;25.90;63.40;;;;;;4899113;29;20043;-78
2023/08/14 10:43:29;;;;;;;3.40;1.42;;;26.00;63.30;;;;;;4884021;29;20084;-78
2023/08/14 10:45:55;;;;;;;2.63;1.40;;;26.10;63.00;;;;;;4899782;29;20500;-78
2023/08/14 10:48:21;;;;;;;2.33;1.48;;;26.10;62.90;;;;;;4915072;29;20059;-75
2023/08/14 10:51:16;;;;;;;2.60;1.45;;;26.20;62.80;;;;;;4898915;29;20383;-78
2023/08/14 10:53:44;;;;;;;3.05;1.50;;;26.20;62.50;;;;;;4898719;29;20048;-77
2023/08/14 10:56:11;;;;;;;2.58;1.60;;;26.30;62.70;;;;;;4900747;29;20036;-77
2023/08/14 10:58:40;;;;;;;3.53;1.30;;;26.30;62.10;;;;;;4900161;29;20051;-75
2023/08/14 11:01:11;;;;;;;7.97;1.42;;;26.30;62.00;;;;;;4899612;29;20123;-78
2023/08/14 11:04:04;;;;;;;2.15;1.40;;;26.30;61.70;;;;;;4899714;29;20052;-76
2023/08/14 11:06:57;;;;;;;3.00;1.55;;;26.40;61.50;;;;;;4899613;29;20427;-77
2023/08/14 11:09:23;;;;;;;2.20;1.20;;;26.40;61.40;;;;;;4914251;29;20032;-77
2023/08/14 11:11:49;;;;;;;2.92;1.33;;;26.50;61.40;;;;;;4900742;29;20043;-77
2023/08/14 11:14:15;;;;;;;2.25;1.30;;;26.50;61.20;;;;;;4898281;29;20028;-77
2023/08/14 11:16:42;;;;;;;2.20;1.13;;;26.50;61.10;;;;;;4915063;29;20115;-77
2023/08/14 11:19:07;;;;;;;2.85;1.50;;;26.60;61.10;;;;;;4898829;29;20040;-76
2023/08/14 11:21:36;;;;;;;2.95;1.63;;;26.50;60.90;;;;;;4898561;29;20048;-77
2023/08/14 11:24:11;;;;;;;2.20;1.35;;;26.50;61.00;;;;;;4898503;29;20036;-77
2023/08/14 11:26:37;;;;;;;2.80;1.33;;;26.60;60.50;;;;;;4899266;29;20058;-76
2023/08/14 11:29:03;;;;;;;1.40;1.30;;;26.60;60.70;;;;;;4899586;29;20506;-76
2023/08/14 11:31:29;;;;;;;2.85;1.45;;;26.60;60.70;;;;;;4898252;29;20040;-76
2023/08/14 11:33:55;;;;;;;2.83;1.33;;;26.60;60.80;;;;;;4898412;29;20124;-75
2023/08/14 11:36:21;;;;;;;2.90;1.30;;;26.60;60.50;;;;;;4899730;29;20064;-76
2023/08/14 11:38:47;;;;;;;3.92;1.63;;;26.60;60.60;;;;;;4898711;29;20056;-76
2023/08/14 11:41:13;;;;;;;3.08;1.52;;;26.60;60.40;;;;;;4898640;29;20100;-75
2023/08/14 11:43:38;;;;;;;2.83;1.40;;;26.60;60.30;;;;;;4898021;29;20120;-76
2023/08/14 11:46:05;;;;;;;2.78;1.45;;;26.70;60.40;;;;;;4883220;29;20035;-75
2023/08/14 11:48:32;;;;;;;2.40;1.60;;;26.70;60.50;;;;;;4898831;29;20033;-78
2023/08/14 11:51:02;;;;;;;2.08;1.50;;;26.70;60.50;;;;;;4898009;29;20032;-75
2023/08/14 11:53:28;;;;;;;3.85;1.50;;;26.70;60.30;;;;;;4897838;29;20037;-76
2023/08/14 11:55:54;;;;;;;2.47;1.40;;;26.70;60.20;;;;;;4897822;29;20035;-75
2023/08/14 11:58:20;;;;;;;1.92;1.45;;;26.70;60.40;;;;;;4898158;29;20032;-76
2023/08/14 12:00:52;;;;;;;2.60;1.50;;;26.70;60.60;;;;;;4897698;29;20036;-76
2023/08/14 12:03:18;;;;;;;2.35;1.30;;;26.70;60.50;;;;;;4897571;29;20033;-76
2023/08/14 12:05:58;;;;;;;2.08;1.30;;;26.80;60.40;;;;;;4913464;29;20028;-76
2023/08/14 12:08:24;;;;;;;2.92;1.45;;;26.80;60.50;;;;;;4898855;29;20024;-76
2023/08/14 12:10:50;;;;;;;3.45;1.50;;;26.80;60.40;;;;;;4882430;29;20058;-76
2023/08/14 12:13:20;;;;;;;2.65;1.40;;;26.80;60.60;;;;;;4899177;29;20088;-76
2023/08/14 12:15:47;;;;;;;2.22;1.50;;;26.80;60.70;;;;;;4881857;29;20037;-76
2023/08/14 12:18:19;;;;;;;2.20;1.10;;;26.80;60.80;;;;;;4897595;29;20111;-76
2023/08/14 12:20:51;;;;;;;2.60;1.30;;;26.80;60.50;;;;;;4898414;29;20096;-75
2023/08/14 12:23:17;;;;;;;2.42;1.38;;;26.80;60.30;;;;;;4898714;29;20047;-75
2023/08/14 12:25:42;;;;;;;3.00;1.23;;;26.80;60.10;;;;;;4897323;29;20486;-75
2023/08/14 12:28:08;;;;;;;2.20;1.20;;;26.80;60.00;;;;;;4898294;29;20029;-75
2023/08/14 12:30:34;;;;;;;3.63;1.30;;;26.90;60.10;;;;;;4897147;29;20131;-75
2023/08/14 12:32:59;;;;;;;1.95;1.08;;;26.90;60.00;;;;;;4898714;29;20051;-76
2023/08/14 12:35:25;;;;;;;2.10;1.30;;;26.90;59.70;;;;;;4897549;29;20047;-75
2023/08/14 12:37:51;;;;;;;1.48;1.30;;;26.90;59.50;;;;;;4913133;29;20414;-75
2023/08/14 12:40:17;;;;;;;2.78;1.40;;;26.90;59.40;;;;;;4898171;29;20505;-75
2023/08/14 12:42:42;;;;;;;2.47;1.35;;;26.90;59.20;;;;;;4897265;29;20037;-75
2023/08/14 12:45:09;;;;;;;2.60;1.27;;;26.90;59.20;;;;;;4897305;29;20451;-76
2023/08/14 12:47:34;;;;;;;2.53;1.33;;;26.90;58.90;;;;;;4897113;29;20192;-77